createdAt,value
2022-11-04T00:00:45.837Z,13.30
2022-11-04T00:03:12.736Z,16.87
2022-11-04T00:05:39.628Z,14.60
2022-11-04T00:08:24.828Z,17.23
2022-11-04T00:11:16.431Z,14.90
2022-11-04T00:13:44.111Z,12.87
2022-11-04T00:16:30.883Z,15.77
2022-11-04T00:19:00.647Z,15.37
2022-11-04T00:21:47.926Z,17.13
2022-11-04T00:24:34.038Z,14.40
2022-11-04T00:27:19.365Z,18.03
2022-11-04T00:29:46.241Z,20.57
2022-11-04T00:32:31.893Z,15.80
2022-11-04T00:34:58.838Z,17.00
2022-11-04T00:37:26.194Z,16.90
2022-11-04T00:39:53.034Z,15.63
2022-11-04T00:42:19.902Z,16.73
2022-11-04T00:44:46.766Z,12.93
2022-11-04T00:47:13.675Z,14.13
2022-11-04T00:49:40.530Z,16.60
2022-11-04T00:52:07.418Z,12.87
2022-11-04T00:54:34.266Z,18.90
2022-11-04T00:57:01.126Z,11.47
2022-11-04T00:59:27.976Z,10.30
2022-11-04T01:01:56.748Z,11.00
2022-11-04T01:04:23.700Z,12.43
2022-11-04T01:06:50.550Z,14.40
2022-11-04T01:09:17.488Z,10.07
2022-11-04T01:11:44.444Z,12.33
2022-11-04T01:14:12.292Z,12.73
2022-11-04T01:16:39.787Z,10.40
2022-11-04T01:19:06.911Z,9.07
2022-11-04T01:21:33.849Z,9.03
2022-11-04T01:24:01.171Z,9.77
2022-11-04T01:26:30.329Z,8.57
2022-11-04T01:28:59.951Z,8.10
2022-11-04T01:31:31.194Z,11.53
2022-11-04T01:33:59.647Z,9.63
2022-11-04T01:36:28.278Z,10.87
2022-11-04T01:38:57.286Z,7.70
2022-11-04T01:41:33.073Z,7.77
2022-11-04T01:45:09.759Z,9.40
2022-11-04T01:47:47.789Z,11.80
2022-11-04T01:50:24.567Z,6.83
2022-11-04T01:53:04.433Z,8.70
2022-11-04T01:55:37.060Z,6.47
2022-11-04T01:58:13.182Z,6.67
2022-11-04T02:00:43.324Z,6.73
2022-11-04T02:03:22.749Z,5.60
2022-11-04T02:05:51.348Z,9.10
2022-11-04T02:08:18.835Z,6.60
2022-11-04T02:11:00.879Z,6.57
2022-11-04T02:13:33.220Z,7.43
2022-11-04T02:16:27.299Z,4.70
2022-11-04T02:20:01.157Z,7.30
2022-11-04T02:22:56.787Z,4.50
2022-11-04T02:26:14.488Z,4.80
2022-11-04T02:29:42.201Z,4.20
2022-11-04T02:32:42.321Z,3.77
2022-11-04T02:35:49.498Z,4.03
2022-11-04T02:38:47.185Z,5.37
2022-11-04T02:41:38.005Z,5.30
2022-11-04T02:44:35.332Z,3.13
2022-11-04T02:47:13.701Z,3.30
2022-11-04T02:50:12.189Z,4.97
2022-11-04T02:53:12.040Z,2.90
2022-11-04T02:55:53.275Z,4.70
2022-11-04T02:58:34.425Z,4.27
2022-11-04T03:01:06.313Z,5.00
2022-11-04T03:03:43.545Z,4.57
2022-11-04T03:06:21.549Z,2.80
2022-11-04T03:08:54.214Z,2.50
2022-11-04T03:11:27.277Z,2.70
2022-11-04T03:14:22.414Z,3.40
2022-11-04T03:17:06.427Z,2.47
2022-11-04T03:19:53.729Z,3.60
2022-11-04T03:22:36.847Z,5.87
2022-11-04T03:25:08.761Z,3.00
2022-11-04T03:28:05.889Z,2.73
2022-11-04T03:30:48.578Z,2.67
2022-11-04T03:33:46.162Z,2.50
2022-11-04T03:36:13.393Z,4.00
2022-11-04T03:38:40.601Z,2.90
2022-11-04T03:41:21.918Z,3.10
2022-11-04T03:43:48.934Z,3.60
2022-11-04T03:46:15.834Z,2.90
2022-11-04T03:48:45.359Z,3.63
2022-11-04T03:51:12.219Z,6.60
2022-11-04T03:53:39.406Z,4.50
2022-11-04T03:56:59.875Z,2.50
2022-11-04T03:59:53.235Z,2.50
2022-11-04T04:02:55.922Z,2.90
2022-11-04T04:05:59.706Z,3.70
2022-11-04T04:08:48.518Z,5.23
2022-11-04T04:11:42.691Z,3.23
2022-11-04T04:14:39.376Z,2.47
2022-11-04T04:17:34.309Z,2.50
2022-11-04T04:20:14.570Z,4.70
2022-11-04T04:22:58.375Z,3.07
2022-11-04T04:25:50.554Z,2.30
2022-11-04T04:28:20.918Z,2.63
2022-11-04T04:30:48.499Z,5.87
2022-11-04T04:33:20.261Z,4.03
2022-11-04T04:35:57.285Z,6.40
2022-11-04T04:38:47.542Z,4.40
2022-11-04T04:41:51.186Z,4.83
2022-11-04T04:44:48.027Z,3.50
2022-11-04T04:47:22.308Z,10.33
2022-11-04T04:50:00.273Z,4.10
2022-11-04T04:52:37.665Z,4.90
2022-11-04T04:55:05.343Z,3.83
2022-11-04T04:57:32.491Z,10.63
2022-11-04T04:59:59.368Z,5.23
2022-11-04T05:02:26.375Z,8.13
2022-11-04T05:04:53.299Z,2.90
2022-11-04T05:07:20.151Z,4.60
2022-11-04T05:09:47.026Z,2.97
2022-11-04T05:12:14.061Z,2.80
2022-11-04T05:14:40.972Z,2.90
2022-11-04T05:17:07.981Z,3.50
2022-11-04T05:19:34.847Z,3.87
2022-11-04T05:22:01.799Z,3.60
2022-11-04T05:24:28.736Z,2.27
2022-11-04T05:26:55.709Z,3.03
2022-11-04T05:29:22.752Z,2.70
2022-11-04T05:31:49.688Z,4.30
2022-11-04T05:34:16.905Z,3.30
2022-11-04T05:36:43.749Z,2.33
2022-11-04T05:39:14.236Z,2.97
2022-11-04T05:41:41.299Z,4.23
2022-11-04T05:44:10.643Z,2.17
2022-11-04T05:46:37.617Z,2.20
2022-11-04T05:49:05.030Z,1.93
2022-11-04T05:51:33.148Z,35.87
2022-11-04T05:54:00.798Z,3.73
2022-11-04T05:56:27.741Z,2.40
2022-11-04T05:58:55.208Z,2.20
2022-11-04T06:01:38.318Z,7.67
2022-11-04T06:04:07.093Z,2.73
2022-11-04T06:06:36.820Z,2.53
2022-11-04T06:09:04.333Z,3.33
2022-11-04T06:11:34.073Z,3.30
2022-11-04T06:14:01.393Z,2.80
2022-11-04T06:16:28.262Z,2.43
2022-11-04T06:18:55.405Z,1.93
2022-11-04T06:21:33.215Z,2.50
2022-11-04T06:24:02.109Z,2.30
2022-11-04T06:26:31.053Z,1.90
2022-11-04T06:28:58.237Z,3.50
2022-11-04T06:31:25.144Z,3.07
2022-11-04T06:33:52.063Z,3.53
2022-11-04T06:36:18.917Z,3.00
2022-11-04T06:38:45.857Z,2.57
2022-11-04T06:41:16.581Z,2.83
2022-11-04T06:43:43.872Z,3.30
2022-11-04T06:46:43.952Z,5.37
2022-11-04T06:49:17.530Z,3.47
2022-11-04T06:51:44.777Z,5.20
2022-11-04T06:54:11.995Z,3.37
2022-11-04T06:56:39.646Z,3.53
2022-11-04T06:59:07.690Z,4.53
2022-11-04T07:01:36.825Z,6.00
2022-11-04T07:04:07.540Z,4.30
2022-11-04T07:06:36.286Z,4.00
2022-11-04T07:09:05.345Z,3.97
2022-11-04T07:11:33.444Z,8.10
2022-11-04T07:14:00.471Z,7.33
2022-11-04T07:16:27.417Z,3.27
2022-11-04T07:18:55.388Z,3.27
2022-11-04T07:21:22.790Z,3.83
2022-11-04T07:23:49.731Z,5.80
2022-11-04T07:26:16.567Z,3.40
2022-11-04T07:28:43.638Z,3.20
2022-11-04T07:31:13.736Z,3.37
2022-11-04T07:33:41.388Z,3.20
2022-11-04T07:36:12.941Z,3.87
2022-11-04T07:38:39.820Z,2.93
2022-11-04T07:41:07.047Z,4.13
2022-11-04T07:43:34.199Z,6.70
2022-11-04T07:46:11.862Z,3.10
2022-11-04T07:48:39.501Z,3.10
2022-11-04T07:51:13.011Z,3.00
2022-11-04T07:53:40.185Z,3.00
2022-11-04T07:56:14.355Z,4.13
2022-11-04T07:58:41.722Z,3.13
2022-11-04T08:01:16.221Z,4.03
2022-11-04T08:03:43.983Z,3.40
2022-11-04T08:06:15.872Z,5.57
2022-11-04T08:08:43.609Z,3.80
2022-11-04T08:11:21.437Z,5.30
2022-11-04T08:13:48.340Z,9.00
2022-11-04T08:16:21.899Z,4.20
2022-11-04T08:18:52.532Z,4.50
2022-11-04T08:21:21.286Z,3.03
2022-11-04T08:23:48.168Z,3.03
2022-11-04T08:26:19.316Z,3.63
2022-11-04T08:28:46.763Z,2.80
2022-11-04T08:31:30.704Z,4.07
2022-11-04T08:33:57.739Z,3.50
2022-11-04T08:36:34.368Z,3.33
2022-11-04T08:39:05.878Z,2.73
2022-11-04T08:41:40.820Z,3.03
2022-11-04T08:44:09.146Z,2.93
2022-11-04T08:46:41.665Z,5.70
2022-11-04T08:49:11.299Z,3.83
2022-11-04T08:51:47.641Z,3.00
2022-11-04T08:54:14.489Z,5.10
2022-11-04T08:56:41.476Z,4.40
2022-11-04T08:59:08.464Z,4.20
2022-11-04T09:03:50.611Z,4.23
2022-11-04T09:06:32.785Z,3.67
2022-11-04T09:09:03.845Z,9.03
2022-11-04T09:11:40.757Z,2.90
2022-11-04T09:14:10.169Z,3.50
2022-11-04T09:16:40.184Z,6.30
2022-11-04T09:19:07.767Z,7.73
2022-11-04T09:21:34.918Z,6.57
2022-11-04T09:24:01.857Z,3.27
2022-11-04T09:26:28.816Z,3.27
2022-11-04T09:28:58.405Z,3.10
2022-11-04T09:31:29.747Z,5.80
2022-11-04T09:33:57.213Z,3.10
2022-11-04T09:36:24.446Z,3.47
2022-11-04T09:38:52.234Z,8.47
2022-11-04T09:41:56.728Z,11.80
2022-11-04T09:44:48.161Z,4.20
2022-11-04T09:47:22.952Z,6.53
2022-11-04T09:49:58.102Z,6.73
2022-11-04T09:52:36.990Z,6.13
2022-11-04T09:55:34.959Z,8.43
2022-11-04T09:58:02.110Z,3.00
2022-11-04T10:00:37.889Z,6.97
2022-11-04T10:04:03.277Z,7.13
2022-11-04T10:07:14.794Z,6.27
2022-11-04T10:09:52.879Z,6.63
2022-11-04T10:12:57.003Z,4.63
2022-11-04T10:15:47.831Z,4.93
2022-11-04T10:18:39.641Z,3.80
2022-11-04T10:21:44.627Z,4.83
2022-11-04T10:24:42.399Z,4.40
2022-11-04T10:27:23.403Z,11.80
2022-11-04T10:30:16.928Z,5.17
2022-11-04T10:33:32.699Z,4.33
2022-11-04T10:36:09.363Z,18.07
2022-11-04T10:38:43.943Z,15.43
2022-11-04T10:41:38.643Z,5.97
2022-11-04T10:44:29.315Z,11.73
2022-11-04T10:47:21.649Z,4.37
2022-11-04T10:50:29.403Z,7.63
2022-11-04T10:53:24.563Z,6.80
2022-11-04T10:56:20.571Z,3.30
2022-11-04T10:58:48.433Z,4.30
2022-11-04T11:01:35.710Z,6.30
2022-11-04T11:04:08.679Z,5.80
2022-11-04T11:06:37.012Z,5.60
2022-11-04T11:09:28.439Z,5.23
2022-11-04T11:15:41.212Z,4.53
2022-11-04T11:18:08.059Z,7.90
2022-11-04T11:20:37.774Z,6.80
2022-11-04T11:23:09.608Z,3.83
2022-11-04T11:26:00.065Z,6.03
2022-11-04T11:28:27.788Z,4.57
2022-11-04T11:31:16.268Z,4.60
2022-11-04T11:34:02.325Z,6.10
2022-11-04T11:36:37.172Z,3.03
2022-11-04T11:39:14.014Z,3.10
2022-11-04T11:41:55.837Z,3.00
2022-11-04T11:44:31.542Z,5.17
2022-11-04T11:47:25.250Z,3.23
2022-11-04T11:50:23.735Z,4.53
2022-11-04T11:52:54.945Z,5.63
2022-11-04T11:55:37.993Z,6.27
2022-11-04T12:01:37.692Z,5.70
2022-11-04T12:10:52.200Z,3.43
2022-11-04T12:13:43.178Z,5.73
2022-11-04T12:16:53.185Z,6.13
2022-11-04T12:20:08.823Z,5.33
2022-11-04T12:23:17.979Z,3.93
2022-11-04T12:26:03.068Z,2.10
2022-11-04T12:28:59.374Z,3.93
2022-11-04T12:31:47.235Z,4.10
2022-11-04T12:35:23.978Z,4.27
2022-11-04T12:38:25.246Z,4.73
2022-11-04T12:41:52.755Z,6.00
2022-11-04T12:45:17.425Z,7.30
2022-11-04T12:47:47.656Z,6.80
2022-11-04T12:50:52.947Z,4.37
2022-11-04T12:54:23.286Z,5.37
2022-11-04T12:57:41.615Z,13.83
2022-11-04T13:00:25.407Z,3.87
2022-11-04T13:03:14.962Z,6.87
2022-11-04T13:06:01.891Z,5.90
2022-11-04T13:08:57.362Z,6.23
2022-11-04T13:12:08.819Z,3.20
2022-11-04T13:14:55.730Z,6.63
2022-11-04T13:17:34.509Z,4.30
2022-11-04T13:20:21.426Z,7.90
2022-11-04T13:22:55.677Z,4.57
2022-11-04T13:25:43.280Z,10.53
2022-11-04T13:28:19.597Z,6.30
2022-11-04T13:31:45.820Z,4.80
2022-11-04T13:34:55.634Z,3.07
2022-11-04T13:37:30.928Z,4.37
2022-11-04T13:40:06.568Z,4.37
2022-11-04T13:43:21.795Z,3.27
2022-11-04T13:45:56.935Z,4.97
2022-11-04T13:48:31.815Z,8.40
2022-11-04T13:51:12.755Z,3.77
2022-11-04T13:53:57.924Z,6.40
2022-11-04T13:56:40.834Z,4.07
2022-11-04T13:59:30.595Z,9.87
2022-11-04T14:02:23.641Z,7.40
2022-11-04T14:04:50.608Z,5.40
2022-11-04T14:07:19.060Z,5.70
2022-11-04T14:09:55.524Z,6.13
2022-11-04T14:12:35.305Z,11.17
2022-11-04T14:15:13.117Z,3.17
2022-11-04T14:17:39.979Z,7.50
2022-11-04T14:20:24.912Z,6.60
2022-11-04T14:23:03.269Z,4.07
2022-11-04T14:25:54.696Z,5.70
2022-11-04T14:28:30.765Z,5.73
2022-11-04T14:31:17.740Z,6.43
2022-11-04T14:33:56.065Z,5.20
2022-11-04T14:36:31.197Z,12.37
2022-11-04T14:39:05.756Z,4.63
2022-11-04T14:42:03.113Z,3.03
2022-11-04T14:44:58.130Z,6.27
2022-11-04T14:47:33.007Z,8.97
2022-11-04T14:49:59.765Z,4.03
2022-11-04T14:52:52.745Z,5.90
2022-11-04T14:55:29.571Z,3.63
2022-11-04T14:58:36.104Z,5.70
2022-11-04T15:01:05.467Z,5.97
2022-11-04T15:04:14.591Z,8.10
2022-11-04T15:06:40.640Z,6.70
2022-11-04T15:09:39.611Z,5.73
2022-11-04T15:12:28.072Z,5.47
2022-11-04T15:14:57.295Z,4.03
2022-11-04T15:17:37.225Z,5.27
2022-11-04T15:20:05.083Z,11.73
2022-11-04T15:22:32.053Z,20.87
2022-11-04T15:25:05.744Z,15.37
2022-11-04T15:27:34.294Z,13.43
2022-11-04T15:30:05.239Z,8.80
2022-11-04T15:32:32.174Z,4.70
2022-11-04T15:34:59.953Z,3.73
2022-11-04T15:37:29.722Z,3.73
2022-11-04T15:39:59.566Z,6.03
2022-11-04T15:42:37.091Z,3.97
2022-11-04T15:45:26.878Z,3.73
2022-11-04T15:48:36.508Z,6.93
2022-11-04T15:51:24.083Z,3.10
2022-11-04T15:54:16.877Z,5.60
2022-11-04T15:56:55.049Z,4.77
2022-11-04T15:59:36.557Z,3.60
2022-11-04T16:02:17.404Z,4.93
2022-11-04T16:04:49.062Z,3.63
2022-11-04T16:07:16.051Z,3.70
2022-11-04T16:09:54.663Z,12.30
2022-11-04T16:12:30.948Z,3.53
2022-11-04T16:15:00.123Z,2.90
2022-11-04T16:17:29.814Z,6.00
2022-11-04T16:20:06.239Z,5.10
2022-11-04T16:22:41.506Z,4.57
2022-11-04T16:25:22.854Z,7.87
2022-11-04T16:27:50.919Z,5.63
2022-11-04T16:30:24.720Z,4.20
2022-11-04T16:32:55.819Z,5.87
2022-11-04T16:35:28.166Z,4.97
2022-11-04T16:37:56.423Z,9.50
2022-11-04T16:40:25.160Z,5.73
2022-11-04T16:42:54.055Z,4.90
2022-11-04T16:45:53.831Z,4.73
2022-11-04T16:48:23.627Z,6.37
2022-11-04T16:50:50.526Z,8.30
2022-11-04T16:53:17.377Z,6.23
2022-11-04T16:55:45.956Z,6.10
2022-11-04T16:58:18.855Z,8.60
2022-11-04T17:00:45.750Z,7.13
2022-11-04T17:03:24.415Z,4.30
2022-11-04T17:05:57.124Z,6.83
2022-11-04T17:08:25.612Z,6.70
2022-11-04T17:10:54.076Z,4.00
2022-11-04T17:13:21.007Z,6.63
2022-11-04T17:15:48.507Z,15.27
2022-11-04T17:18:18.375Z,4.30
2022-11-04T17:20:54.793Z,5.03
2022-11-04T17:23:22.623Z,7.63
2022-11-04T17:25:50.123Z,3.63
2022-11-04T17:28:17.159Z,4.00
2022-11-04T17:30:45.245Z,6.37
2022-11-04T17:33:18.592Z,7.07
2022-11-04T17:35:50.687Z,9.00
2022-11-04T17:38:19.273Z,9.77
2022-11-04T17:41:05.420Z,20.93
2022-11-04T17:43:50.784Z,19.20
2022-11-04T17:46:36.877Z,14.50
2022-11-04T17:49:16.123Z,17.33
2022-11-04T17:51:48.872Z,21.33
2022-11-04T17:54:17.320Z,15.27
2022-11-04T17:56:44.185Z,22.00
2022-11-04T17:59:14.788Z,17.73
2022-11-04T18:01:44.292Z,19.73
2022-11-04T18:04:19.609Z,22.93
2022-11-04T18:06:46.838Z,26.73
2022-11-04T18:09:17.266Z,19.73
2022-11-04T18:12:04.721Z,10.10
2022-11-04T18:14:32.309Z,12.80
2022-11-04T18:16:59.389Z,14.07
2022-11-04T18:19:27.721Z,11.43
2022-11-04T18:21:54.678Z,19.83
2022-11-04T18:24:21.891Z,9.97
2022-11-04T18:26:48.759Z,13.13
2022-11-04T18:29:17.317Z,11.00
2022-11-04T18:31:48.980Z,18.20
2022-11-04T18:34:19.212Z,12.30
2022-11-04T18:36:48.325Z,11.50
2022-11-04T18:39:19.289Z,11.80
2022-11-04T18:41:46.964Z,10.87
2022-11-04T18:44:21.921Z,11.30
2022-11-04T18:46:50.597Z,9.03
2022-11-04T18:49:20.370Z,9.67
2022-11-04T18:51:47.507Z,11.00
2022-11-04T18:54:14.978Z,10.93
2022-11-04T18:56:42.671Z,15.67
2022-11-04T18:59:13.953Z,16.30
2022-11-04T19:01:42.863Z,12.20
2022-11-04T19:04:09.962Z,14.70
2022-11-04T19:06:43.106Z,11.90
2022-11-04T19:12:22.140Z,35.73
2022-11-04T19:14:49.196Z,16.93
2022-11-04T19:17:16.203Z,17.63
2022-11-04T19:19:43.098Z,17.30
2022-11-04T19:22:14.224Z,13.70
2022-11-04T19:24:41.158Z,25.50
2022-11-04T19:27:08.162Z,39.40
2022-11-04T19:29:35.034Z,22.60
2022-11-04T19:32:02.037Z,18.60
2022-11-04T19:34:29.047Z,23.20
2022-11-04T19:36:56.132Z,20.47
2022-11-04T19:39:23.114Z,16.30
2022-11-04T19:42:08.811Z,16.87
2022-11-04T19:44:35.767Z,14.90
2022-11-04T19:47:02.655Z,15.90
2022-11-04T19:49:31.393Z,45.10
2022-11-04T19:51:59.815Z,63.30
2022-11-04T19:54:28.247Z,29.10
2022-11-04T19:56:55.901Z,20.43
2022-11-04T19:59:22.877Z,17.33
2022-11-04T20:01:50.450Z,12.97
2022-11-04T20:04:17.630Z,9.30
2022-11-04T20:06:44.624Z,18.10
2022-11-04T20:09:12.073Z,14.40
2022-11-04T20:11:59.792Z,17.13
2022-11-04T20:14:28.419Z,9.83
2022-11-04T20:16:55.831Z,7.30
2022-11-04T20:19:23.450Z,8.47
2022-11-04T20:21:51.299Z,12.73
2022-11-04T20:24:18.578Z,7.80
2022-11-04T20:26:48.893Z,7.97
2022-11-04T20:29:16.321Z,7.70
2022-11-04T20:31:44.595Z,6.90
2022-11-04T20:34:13.958Z,10.07
2022-11-04T20:36:42.144Z,8.20
2022-11-04T20:39:19.843Z,9.07
2022-11-04T20:41:47.757Z,8.03
2022-11-04T20:44:15.977Z,11.80
2022-11-04T20:46:44.420Z,7.57
2022-11-04T20:49:12.604Z,8.77
2022-11-04T20:51:48.605Z,6.93
2022-11-04T20:54:17.849Z,8.73
2022-11-04T20:56:45.305Z,8.80
2022-11-04T20:59:14.130Z,10.37
2022-11-04T21:01:46.225Z,8.73
2022-11-04T21:04:18.792Z,9.60
2022-11-04T21:06:48.886Z,8.57
2022-11-04T21:09:19.890Z,12.27
2022-11-04T21:11:47.793Z,10.10
2022-11-04T21:14:19.168Z,8.57
2022-11-04T21:16:47.457Z,8.63
2022-11-04T21:19:16.269Z,9.90
2022-11-04T21:21:46.880Z,15.37
2022-11-04T21:24:15.877Z,6.53
2022-11-04T21:26:45.529Z,7.80
2022-11-04T21:29:17.534Z,11.00
2022-11-04T21:31:47.301Z,8.30
2022-11-04T21:34:14.694Z,7.43
2022-11-04T21:36:42.444Z,7.47
2022-11-04T21:39:11.073Z,8.73
2022-11-04T21:41:38.533Z,11.10
2022-11-04T21:44:13.597Z,9.30
2022-11-04T21:46:40.517Z,7.23
2022-11-04T21:49:07.441Z,9.30
2022-11-04T21:51:34.724Z,8.50
2022-11-04T21:54:06.954Z,10.03
2022-11-04T21:56:35.184Z,8.50
2022-11-04T21:59:03.961Z,12.97
2022-11-04T22:01:32.487Z,10.70
2022-11-04T22:04:02.224Z,10.70
2022-11-04T22:06:35.067Z,10.43
2022-11-04T22:09:05.947Z,8.10
2022-11-04T22:11:37.137Z,10.50
2022-11-04T22:14:08.321Z,5.77
2022-11-04T22:16:39.283Z,5.63
2022-11-04T22:19:11.055Z,8.47
2022-11-04T22:21:45.421Z,7.00
2022-11-04T22:24:17.183Z,4.93
2022-11-04T22:26:45.950Z,4.87
2022-11-04T22:29:12.862Z,3.47
2022-11-04T22:31:42.983Z,5.00
2022-11-04T22:34:09.993Z,3.93
2022-11-04T22:36:37.819Z,3.50
2022-11-04T22:39:05.549Z,3.20
2022-11-04T22:41:35.534Z,6.03
2022-11-04T22:44:03.122Z,6.97
2022-11-04T22:46:33.606Z,6.57
2022-11-04T22:49:01.220Z,7.63
2022-11-04T22:51:31.192Z,7.60
2022-11-04T22:54:04.619Z,8.20
2022-11-04T22:56:33.863Z,9.83
2022-11-04T22:59:01.236Z,5.37
2022-11-04T23:01:28.389Z,4.70
2022-11-04T23:03:55.422Z,7.00
2022-11-04T23:06:22.368Z,5.47
2022-11-04T23:08:49.491Z,3.70
2022-11-04T23:11:44.784Z,3.73
2022-11-04T23:14:54.580Z,5.33
2022-11-04T23:17:41.940Z,9.40
2022-11-04T23:20:15.091Z,5.73
2022-11-04T23:23:00.805Z,5.53
2022-11-04T23:25:27.931Z,3.63
2022-11-04T23:28:14.652Z,4.40
2022-11-04T23:30:51.985Z,4.83
2022-11-04T23:33:39.072Z,5.30
2022-11-04T23:36:24.636Z,3.97
2022-11-04T23:38:51.477Z,5.30
2022-11-04T23:41:36.844Z,5.77
2022-11-04T23:44:04.010Z,5.40
2022-11-04T23:46:49.780Z,3.80
2022-11-04T23:49:35.180Z,3.50
2022-11-04T23:52:20.468Z,4.67
2022-11-04T23:55:05.889Z,8.67
2022-11-04T23:57:51.285Z,8.80
